sensor_id;sensor_type;location;lat;lon;timestamp;temperature;humidity
19555;DHT22;9924;50.828;6.440;2022-12-18T00:02:23;-6.40;99.90
19555;DHT22;9924;50.828;6.440;2022-12-18T00:05:08;-6.30;99.90
19555;DHT22;9924;50.828;6.440;2022-12-18T00:07:52;-6.30;99.90
19555;DHT22;9924;50.828;6.440;2022-12-18T00:10:36;-6.30;99.90
19555;DHT22;9924;50.828;6.440;2022-12-18T00:13:21;-6.30;99.90
19555;DHT22;9924;50.828;6.440;2022-12-18T00:16:07;-6.40;99.90
19555;DHT22;9924;50.828;6.440;2022-12-18T00:18:55;-6.40;99.90
19555;DHT22;9924;50.828;6.440;2022-12-18T00:21:40;-6.50;99.90
19555;DHT22;9924;50.828;6.440;2022-12-18T00:24:25;-6.60;99.90
19555;DHT22;9924;50.828;6.440;2022-12-18T00:27:09;-6.60;99.90
19555;DHT22;9924;50.828;6.440;2022-12-18T00:29:54;-6.70;99.90
19555;DHT22;9924;50.828;6.440;2022-12-18T00:32:38;-6.70;99.90
19555;DHT22;9924;50.828;6.440;2022-12-18T00:35:23;-6.80;99.90
19555;DHT22;9924;50.828;6.440;2022-12-18T00:38:07;-6.80;99.90
19555;DHT22;9924;50.828;6.440;2022-12-18T00:40:52;-6.90;99.90
19555;DHT22;9924;50.828;6.440;2022-12-18T00:43:37;-6.90;99.90
19555;DHT22;9924;50.828;6.440;2022-12-18T00:46:21;-6.90;99.90
19555;DHT22;9924;50.828;6.440;2022-12-18T00:49:06;-6.90;99.90
19555;DHT22;9924;50.828;6.440;2022-12-18T00:51:51;-6.90;99.90
19555;DHT22;9924;50.828;6.440;2022-12-18T00:54:35;-6.90;99.90
19555;DHT22;9924;50.828;6.440;2022-12-18T00:57:19;-6.90;99.90
19555;DHT22;9924;50.828;6.440;2022-12-18T01:00:05;-6.80;99.90
19555;DHT22;9924;50.828;6.440;2022-12-18T01:02:50;-6.80;99.90
19555;DHT22;9924;50.828;6.440;2022-12-18T01:05:39;-6.90;99.90
19555;DHT22;9924;50.828;6.440;2022-12-18T01:08:24;-6.80;99.90
19555;DHT22;9924;50.828;6.440;2022-12-18T01:11:10;-6.80;99.90
19555;DHT22;9924;50.828;6.440;2022-12-18T01:13:55;-6.80;99.90
19555;DHT22;9924;50.828;6.440;2022-12-18T01:16:39;-6.80;99.90
19555;DHT22;9924;50.828;6.440;2022-12-18T01:19:24;-6.80;99.90
19555;DHT22;9924;50.828;6.440;2022-12-18T01:22:08;-6.80;99.90
19555;DHT22;9924;50.828;6.440;2022-12-18T01:24:53;-6.90;99.90
19555;DHT22;9924;50.828;6.440;2022-12-18T01:27:37;-6.80;99.90
19555;DHT22;9924;50.828;6.440;2022-12-18T01:30:21;-6.80;99.90
19555;DHT22;9924;50.828;6.440;2022-12-18T01:33:06;-6.90;99.90
19555;DHT22;9924;50.828;6.440;2022-12-18T01:35:50;-6.90;99.90
19555;DHT22;9924;50.828;6.440;2022-12-18T01:38:35;-6.90;99.90
19555;DHT22;9924;50.828;6.440;2022-12-18T01:41:27;-6.80;99.90
19555;DHT22;9924;50.828;6.440;2022-12-18T01:47:47;-6.60;99.90
19555;DHT22;9924;50.828;6.440;2022-12-18T01:50:39;-6.60;99.90
19555;DHT22;9924;50.828;6.440;2022-12-18T01:53:23;-6.60;99.90
19555;DHT22;9924;50.828;6.440;2022-12-18T01:56:10;-6.50;99.90
19555;DHT22;9924;50.828;6.440;2022-12-18T01:59:02;-6.50;99.90
19555;DHT22;9924;50.828;6.440;2022-12-18T02:01:47;-6.50;99.90
19555;DHT22;9924;50.828;6.440;2022-12-18T02:04:31;-6.40;99.90
19555;DHT22;9924;50.828;6.440;2022-12-18T02:10:56;-6.40;99.90
19555;DHT22;9924;50.828;6.440;2022-12-18T02:19:39;-6.40;99.90
19555;DHT22;9924;50.828;6.440;2022-12-18T02:28:44;-6.50;99.90
19555;DHT22;9924;50.828;6.440;2022-12-18T02:31:36;-6.50;99.90
19555;DHT22;9924;50.828;6.440;2022-12-18T02:34:28;-6.50;99.90
19555;DHT22;9924;50.828;6.440;2022-12-18T02:37:16;-6.50;99.90
19555;DHT22;9924;50.828;6.440;2022-12-18T02:40:03;-6.50;99.90
19555;DHT22;9924;50.828;6.440;2022-12-18T02:42:49;-6.50;99.90
19555;DHT22;9924;50.828;6.440;2022-12-18T02:45:33;-6.50;99.90
19555;DHT22;9924;50.828;6.440;2022-12-18T02:48:19;-6.50;99.90
19555;DHT22;9924;50.828;6.440;2022-12-18T02:51:18;-6.50;99.90
19555;DHT22;9924;50.828;6.440;2022-12-18T02:54:10;-6.50;99.90
19555;DHT22;9924;50.828;6.440;2022-12-18T02:57:10;-6.50;99.90
19555;DHT22;9924;50.828;6.440;2022-12-18T03:00:03;-6.50;99.90
19555;DHT22;9924;50.828;6.440;2022-12-18T03:03:13;-6.60;99.90
19555;DHT22;9924;50.828;6.440;2022-12-18T03:08:54;-6.60;99.90
19555;DHT22;9924;50.828;6.440;2022-12-18T03:11:42;-6.60;99.90
19555;DHT22;9924;50.828;6.440;2022-12-18T03:15:25;-6.60;99.90
19555;DHT22;9924;50.828;6.440;2022-12-18T03:18:12;-6.60;99.90
19555;DHT22;9924;50.828;6.440;2022-12-18T03:21:00;-6.60;99.90
19555;DHT22;9924;50.828;6.440;2022-12-18T03:23:50;-6.60;99.90
19555;DHT22;9924;50.828;6.440;2022-12-18T03:26:37;-6.60;99.90
19555;DHT22;9924;50.828;6.440;2022-12-18T03:29:37;-6.60;99.90
19555;DHT22;9924;50.828;6.440;2022-12-18T03:32:30;-6.70;99.90
19555;DHT22;9924;50.828;6.440;2022-12-18T03:35:22;-6.70;99.90
19555;DHT22;9924;50.828;6.440;2022-12-18T03:38:09;-6.70;99.90
19555;DHT22;9924;50.828;6.440;2022-12-18T03:41:01;-6.70;99.90
19555;DHT22;9924;50.828;6.440;2022-12-18T03:47:46;-6.80;99.90
19555;DHT22;9924;50.828;6.440;2022-12-18T03:53:50;-6.70;99.90
19555;DHT22;9924;50.828;6.440;2022-12-18T03:56:39;-6.70;99.90
19555;DHT22;9924;50.828;6.440;2022-12-18T03:59:26;-6.80;99.90
19555;DHT22;9924;50.828;6.440;2022-12-18T04:02:11;-6.70;99.90
19555;DHT22;9924;50.828;6.440;2022-12-18T04:04:59;-6.70;99.90
19555;DHT22;9924;50.828;6.440;2022-12-18T04:07:47;-6.70;99.90
19555;DHT22;9924;50.828;6.440;2022-12-18T04:10:31;-6.70;99.90
19555;DHT22;9924;50.828;6.440;2022-12-18T04:13:23;-6.70;99.90
19555;DHT22;9924;50.828;6.440;2022-12-18T04:16:08;-6.70;99.90
19555;DHT22;9924;50.828;6.440;2022-12-18T04:18:53;-6.70;99.90
19555;DHT22;9924;50.828;6.440;2022-12-18T04:21:38;-6.70;99.90
19555;DHT22;9924;50.828;6.440;2022-12-18T04:24:22;-6.80;99.90
19555;DHT22;9924;50.828;6.440;2022-12-18T04:27:07;-6.80;99.90
19555;DHT22;9924;50.828;6.440;2022-12-18T04:29:52;-6.90;99.90
19555;DHT22;9924;50.828;6.440;2022-12-18T04:32:36;-6.90;99.90
19555;DHT22;9924;50.828;6.440;2022-12-18T04:35:20;-6.90;99.90
19555;DHT22;9924;50.828;6.440;2022-12-18T04:38:06;-6.90;99.90
19555;DHT22;9924;50.828;6.440;2022-12-18T04:40:52;-6.90;99.90
19555;DHT22;9924;50.828;6.440;2022-12-18T04:43:37;-7.00;99.90
19555;DHT22;9924;50.828;6.440;2022-12-18T04:46:21;-7.00;99.90
19555;DHT22;9924;50.828;6.440;2022-12-18T04:49:05;-7.00;99.90
19555;DHT22;9924;50.828;6.440;2022-12-18T04:51:50;-7.00;99.90
19555;DHT22;9924;50.828;6.440;2022-12-18T04:54:34;-7.00;99.90
19555;DHT22;9924;50.828;6.440;2022-12-18T04:57:19;-7.00;99.90
19555;DHT22;9924;50.828;6.440;2022-12-18T05:00:03;-7.00;99.90
19555;DHT22;9924;50.828;6.440;2022-12-18T05:02:49;-7.00;99.90
19555;DHT22;9924;50.828;6.440;2022-12-18T05:05:35;-7.00;99.90
19555;DHT22;9924;50.828;6.440;2022-12-18T05:08:19;-7.00;99.90
19555;DHT22;9924;50.828;6.440;2022-12-18T05:11:07;-7.00;99.90
19555;DHT22;9924;50.828;6.440;2022-12-18T05:13:52;-7.00;99.90
19555;DHT22;9924;50.828;6.440;2022-12-18T05:16:36;-7.00;99.90
19555;DHT22;9924;50.828;6.440;2022-12-18T05:19:20;-7.00;99.90
19555;DHT22;9924;50.828;6.440;2022-12-18T05:22:08;-7.00;99.90
19555;DHT22;9924;50.828;6.440;2022-12-18T05:24:53;-7.00;99.90
19555;DHT22;9924;50.828;6.440;2022-12-18T05:27:38;-7.00;99.90
19555;DHT22;9924;50.828;6.440;2022-12-18T05:30:22;-7.00;99.90
19555;DHT22;9924;50.828;6.440;2022-12-18T05:33:07;-7.00;99.90
19555;DHT22;9924;50.828;6.440;2022-12-18T05:35:53;-6.90;99.90
19555;DHT22;9924;50.828;6.440;2022-12-18T05:38:38;-6.90;99.90
19555;DHT22;9924;50.828;6.440;2022-12-18T05:41:23;-6.90;99.90
19555;DHT22;9924;50.828;6.440;2022-12-18T05:44:07;-6.80;99.90
19555;DHT22;9924;50.828;6.440;2022-12-18T05:46:51;-6.80;99.90
19555;DHT22;9924;50.828;6.440;2022-12-18T05:49:36;-6.80;99.90
19555;DHT22;9924;50.828;6.440;2022-12-18T05:52:20;-6.80;99.90
19555;DHT22;9924;50.828;6.440;2022-12-18T05:55:05;-6.90;99.90
19555;DHT22;9924;50.828;6.440;2022-12-18T05:57:49;-6.80;99.90
19555;DHT22;9924;50.828;6.440;2022-12-18T06:00:37;-6.80;99.90
19555;DHT22;9924;50.828;6.440;2022-12-18T06:03:24;-6.80;99.90
19555;DHT22;9924;50.828;6.440;2022-12-18T06:06:19;-6.80;99.90
19555;DHT22;9924;50.828;6.440;2022-12-18T06:09:04;-6.80;99.90
19555;DHT22;9924;50.828;6.440;2022-12-18T06:11:52;-6.80;99.90
19555;DHT22;9924;50.828;6.440;2022-12-18T06:14:37;-6.80;99.90
19555;DHT22;9924;50.828;6.440;2022-12-18T06:17:21;-6.80;99.90
19555;DHT22;9924;50.828;6.440;2022-12-18T06:20:06;-6.80;99.90
19555;DHT22;9924;50.828;6.440;2022-12-18T06:22:51;-6.80;99.90
19555;DHT22;9924;50.828;6.440;2022-12-18T06:25:39;-6.80;99.90
19555;DHT22;9924;50.828;6.440;2022-12-18T06:28:23;-6.80;99.90
19555;DHT22;9924;50.828;6.440;2022-12-18T06:31:09;-6.80;99.90
19555;DHT22;9924;50.828;6.440;2022-12-18T06:33:53;-6.80;99.90
19555;DHT22;9924;50.828;6.440;2022-12-18T06:36:37;-6.80;99.90
19555;DHT22;9924;50.828;6.440;2022-12-18T06:39:23;-6.70;99.90
19555;DHT22;9924;50.828;6.440;2022-12-18T06:42:07;-6.70;99.90
19555;DHT22;9924;50.828;6.440;2022-12-18T06:44:52;-6.80;99.90
19555;DHT22;9924;50.828;6.440;2022-12-18T06:47:36;-6.80;99.90
19555;DHT22;9924;50.828;6.440;2022-12-18T06:50:20;-6.70;99.90
19555;DHT22;9924;50.828;6.440;2022-12-18T06:53:05;-6.70;99.90
19555;DHT22;9924;50.828;6.440;2022-12-18T06:55:49;-6.70;99.90
19555;DHT22;9924;50.828;6.440;2022-12-18T06:58:34;-6.70;99.90
19555;DHT22;9924;50.828;6.440;2022-12-18T07:01:19;-6.70;99.90
19555;DHT22;9924;50.828;6.440;2022-12-18T07:04:03;-6.60;99.90
19555;DHT22;9924;50.828;6.440;2022-12-18T07:06:48;-6.60;99.90
19555;DHT22;9924;50.828;6.440;2022-12-18T07:09:32;-6.50;99.90
19555;DHT22;9924;50.828;6.440;2022-12-18T07:12:17;-6.50;99.90
19555;DHT22;9924;50.828;6.440;2022-12-18T07:15:02;-6.50;99.90
19555;DHT22;9924;50.828;6.440;2022-12-18T07:17:46;-6.50;99.90
19555;DHT22;9924;50.828;6.440;2022-12-18T07:20:30;-6.50;99.90
19555;DHT22;9924;50.828;6.440;2022-12-18T07:23:15;-6.50;99.90
19555;DHT22;9924;50.828;6.440;2022-12-18T07:26:06;-6.50;99.90
19555;DHT22;9924;50.828;6.440;2022-12-18T07:28:55;-6.50;99.90
19555;DHT22;9924;50.828;6.440;2022-12-18T07:31:41;-6.50;99.90
19555;DHT22;9924;50.828;6.440;2022-12-18T07:34:25;-6.50;99.90
19555;DHT22;9924;50.828;6.440;2022-12-18T07:37:10;-6.40;99.90
19555;DHT22;9924;50.828;6.440;2022-12-18T07:39:55;-6.40;99.90
19555;DHT22;9924;50.828;6.440;2022-12-18T07:42:39;-6.30;99.90
19555;DHT22;9924;50.828;6.440;2022-12-18T07:45:23;-6.30;99.90
19555;DHT22;9924;50.828;6.440;2022-12-18T07:48:07;-6.30;99.90
19555;DHT22;9924;50.828;6.440;2022-12-18T07:50:52;-6.30;99.90
19555;DHT22;9924;50.828;6.440;2022-12-18T07:53:37;-6.30;99.90
19555;DHT22;9924;50.828;6.440;2022-12-18T07:56:22;-6.20;99.90
19555;DHT22;9924;50.828;6.440;2022-12-18T07:59:06;-6.20;99.90
19555;DHT22;9924;50.828;6.440;2022-12-18T08:01:50;-6.20;99.90
19555;DHT22;9924;50.828;6.440;2022-12-18T08:04:35;-6.20;99.90
19555;DHT22;9924;50.828;6.440;2022-12-18T08:07:19;-6.10;99.90
19555;DHT22;9924;50.828;6.440;2022-12-18T08:10:04;-6.00;99.90
19555;DHT22;9924;50.828;6.440;2022-12-18T08:12:50;-6.00;99.90
19555;DHT22;9924;50.828;6.440;2022-12-18T08:15:35;-5.90;99.90
19555;DHT22;9924;50.828;6.440;2022-12-18T08:18:19;-5.80;99.90
19555;DHT22;9924;50.828;6.440;2022-12-18T08:21:11;-5.80;99.90
19555;DHT22;9924;50.828;6.440;2022-12-18T08:23:59;-5.70;99.90
19555;DHT22;9924;50.828;6.440;2022-12-18T08:26:45;-5.70;99.90
19555;DHT22;9924;50.828;6.440;2022-12-18T08:29:30;-5.60;99.90
19555;DHT22;9924;50.828;6.440;2022-12-18T08:32:15;-5.50;99.90
19555;DHT22;9924;50.828;6.440;2022-12-18T08:35:00;-5.40;99.90
19555;DHT22;9924;50.828;6.440;2022-12-18T08:37:45;-5.30;99.90
19555;DHT22;9924;50.828;6.440;2022-12-18T08:40:29;-5.20;99.90
19555;DHT22;9924;50.828;6.440;2022-12-18T08:43:13;-5.10;99.90
19555;DHT22;9924;50.828;6.440;2022-12-18T08:46:18;-5.00;99.90
19555;DHT22;9924;50.828;6.440;2022-12-18T08:49:03;-4.80;99.90
19555;DHT22;9924;50.828;6.440;2022-12-18T08:51:48;-4.70;99.90
19555;DHT22;9924;50.828;6.440;2022-12-18T08:54:33;-4.60;99.90
19555;DHT22;9924;50.828;6.440;2022-12-18T08:57:17;-4.40;99.90
19555;DHT22;9924;50.828;6.440;2022-12-18T09:00:03;-4.40;99.90
19555;DHT22;9924;50.828;6.440;2022-12-18T09:02:48;-4.30;99.90
19555;DHT22;9924;50.828;6.440;2022-12-18T09:05:32;-4.20;99.90
19555;DHT22;9924;50.828;6.440;2022-12-18T09:08:17;-4.10;99.90
19555;DHT22;9924;50.828;6.440;2022-12-18T09:11:02;-4.10;99.90
19555;DHT22;9924;50.828;6.440;2022-12-18T09:13:46;-4.00;99.90
19555;DHT22;9924;50.828;6.440;2022-12-18T09:16:32;-3.90;99.90
19555;DHT22;9924;50.828;6.440;2022-12-18T09:19:18;-3.60;99.90
19555;DHT22;9924;50.828;6.440;2022-12-18T09:22:02;-3.30;99.90
19555;DHT22;9924;50.828;6.440;2022-12-18T09:24:48;-2.90;99.90
19555;DHT22;9924;50.828;6.440;2022-12-18T09:27:33;-2.50;99.90
19555;DHT22;9924;50.828;6.440;2022-12-18T09:30:17;-2.30;99.90
19555;DHT22;9924;50.828;6.440;2022-12-18T09:33:02;-2.30;99.90
19555;DHT22;9924;50.828;6.440;2022-12-18T09:35:46;-2.30;99.90
19555;DHT22;9924;50.828;6.440;2022-12-18T09:38:31;-2.10;99.90
19555;DHT22;9924;50.828;6.440;2022-12-18T09:44:24;-2.30;99.90
19555;DHT22;9924;50.828;6.440;2022-12-18T09:47:44;-2.40;99.90
19555;DHT22;9924;50.828;6.440;2022-12-18T09:50:33;-2.30;99.90
19555;DHT22;9924;50.828;6.440;2022-12-18T09:53:24;-2.30;99.90
19555;DHT22;9924;50.828;6.440;2022-12-18T09:56:15;-2.10;99.90
19555;DHT22;9924;50.828;6.440;2022-12-18T09:59:02;-1.90;99.90
19555;DHT22;9924;50.828;6.440;2022-12-18T10:01:47;-1.50;99.90
19555;DHT22;9924;50.828;6.440;2022-12-18T10:04:32;-1.30;99.90
19555;DHT22;9924;50.828;6.440;2022-12-18T10:07:29;-1.10;99.90
19555;DHT22;9924;50.828;6.440;2022-12-18T10:10:29;-0.80;99.90
19555;DHT22;9924;50.828;6.440;2022-12-18T10:13:31;-0.40;99.90
19555;DHT22;9924;50.828;6.440;2022-12-18T10:16:40;-0.30;99.90
19555;DHT22;9924;50.828;6.440;2022-12-18T10:19:45;-0.20;99.90
19555;DHT22;9924;50.828;6.440;2022-12-18T10:26:04;0.10;99.90
19555;DHT22;9924;50.828;6.440;2022-12-18T10:28:51;0.10;99.90
19555;DHT22;9924;50.828;6.440;2022-12-18T10:31:37;0.00;99.90
19555;DHT22;9924;50.828;6.440;2022-12-18T10:34:21;-0.20;99.90
19555;DHT22;9924;50.828;6.440;2022-12-18T10:37:13;-0.10;99.90
19555;DHT22;9924;50.828;6.440;2022-12-18T10:40:12;-0.20;99.90
19555;DHT22;9924;50.828;6.440;2022-12-18T10:43:11;-0.20;99.90
19555;DHT22;9924;50.828;6.440;2022-12-18T10:48:52;-0.50;99.90
19555;DHT22;9924;50.828;6.440;2022-12-18T10:51:37;-0.50;99.90
19555;DHT22;9924;50.828;6.440;2022-12-18T10:54:22;-0.50;99.90
19555;DHT22;9924;50.828;6.440;2022-12-18T10:57:30;-0.40;99.90
19555;DHT22;9924;50.828;6.440;2022-12-18T11:00:33;-0.30;99.90
19555;DHT22;9924;50.828;6.440;2022-12-18T11:03:40;-0.30;99.90
19555;DHT22;9924;50.828;6.440;2022-12-18T11:06:26;-0.30;99.90
19555;DHT22;9924;50.828;6.440;2022-12-18T11:09:21;-0.30;99.90
19555;DHT22;9924;50.828;6.440;2022-12-18T11:12:16;-0.30;99.90
19555;DHT22;9924;50.828;6.440;2022-12-18T11:15:01;-0.20;99.90
19555;DHT22;9924;50.828;6.440;2022-12-18T11:17:48;-0.20;99.90
19555;DHT22;9924;50.828;6.440;2022-12-18T11:20:37;-0.10;99.90
19555;DHT22;9924;50.828;6.440;2022-12-18T11:23:22;-0.20;99.90
19555;DHT22;9924;50.828;6.440;2022-12-18T11:26:08;-0.10;99.90
19555;DHT22;9924;50.828;6.440;2022-12-18T11:29:12;0.00;99.90
19555;DHT22;9924;50.828;6.440;2022-12-18T11:35:19;0.00;99.90
19555;DHT22;9924;50.828;6.440;2022-12-18T11:38:28;0.00;99.90
19555;DHT22;9924;50.828;6.440;2022-12-18T11:41:27;-0.10;99.90
19555;DHT22;9924;50.828;6.440;2022-12-18T11:47:54;-0.10;99.90
19555;DHT22;9924;50.828;6.440;2022-12-18T11:50:56;-0.20;99.90
19555;DHT22;9924;50.828;6.440;2022-12-18T11:53:41;-0.30;99.90
19555;DHT22;9924;50.828;6.440;2022-12-18T11:56:43;-0.40;99.90
19555;DHT22;9924;50.828;6.440;2022-12-18T12:06:10;-0.50;99.90
19555;DHT22;9924;50.828;6.440;2022-12-18T12:09:26;-0.40;99.90
19555;DHT22;9924;50.828;6.440;2022-12-18T12:12:20;-0.40;99.90
19555;DHT22;9924;50.828;6.440;2022-12-18T12:18:08;-0.30;99.90
19555;DHT22;9924;50.828;6.440;2022-12-18T12:21:05;-0.20;99.90
19555;DHT22;9924;50.828;6.440;2022-12-18T12:26:45;0.00;99.90
19555;DHT22;9924;50.828;6.440;2022-12-18T12:38:40;0.00;99.90
19555;DHT22;9924;50.828;6.440;2022-12-18T12:41:30;0.00;99.90
19555;DHT22;9924;50.828;6.440;2022-12-18T12:44:39;0.10;99.90
19555;DHT22;9924;50.828;6.440;2022-12-18T12:47:30;0.00;99.90
19555;DHT22;9924;50.828;6.440;2022-12-18T12:50:18;0.00;99.90
19555;DHT22;9924;50.828;6.440;2022-12-18T12:53:07;-0.10;99.90
19555;DHT22;9924;50.828;6.440;2022-12-18T12:55:53;-0.10;99.90
19555;DHT22;9924;50.828;6.440;2022-12-18T13:04:49;-0.20;99.90
19555;DHT22;9924;50.828;6.440;2022-12-18T13:07:47;-0.20;99.90
19555;DHT22;9924;50.828;6.440;2022-12-18T13:13:17;-0.30;99.90
19555;DHT22;9924;50.828;6.440;2022-12-18T13:16:05;-0.30;99.90
19555;DHT22;9924;50.828;6.440;2022-12-18T13:18:52;-0.30;99.90
19555;DHT22;9924;50.828;6.440;2022-12-18T13:21:37;-0.40;99.90
19555;DHT22;9924;50.828;6.440;2022-12-18T13:24:30;-0.50;99.90
19555;DHT22;9924;50.828;6.440;2022-12-18T13:39:11;-0.50;99.90
19555;DHT22;9924;50.828;6.440;2022-12-18T13:44:49;-0.50;99.90
19555;DHT22;9924;50.828;6.440;2022-12-18T13:47:35;-0.40;99.90
19555;DHT22;9924;50.828;6.440;2022-12-18T13:50:30;-0.40;99.90
19555;DHT22;9924;50.828;6.440;2022-12-18T13:53:30;-0.30;99.90
19555;DHT22;9924;50.828;6.440;2022-12-18T13:56:31;-0.40;99.90
19555;DHT22;9924;50.828;6.440;2022-12-18T13:59:32;-0.50;99.90
19555;DHT22;9924;50.828;6.440;2022-12-18T14:02:28;-0.60;99.90
19555;DHT22;9924;50.828;6.440;2022-12-18T14:05:33;-0.70;99.90
19555;DHT22;9924;50.828;6.440;2022-12-18T14:08:18;-0.80;99.90
19555;DHT22;9924;50.828;6.440;2022-12-18T14:11:04;-0.90;99.90
19555;DHT22;9924;50.828;6.440;2022-12-18T14:13:52;-0.90;99.90
19555;DHT22;9924;50.828;6.440;2022-12-18T14:16:36;-1.00;99.90
19555;DHT22;9924;50.828;6.440;2022-12-18T14:19:21;-1.00;99.90
19555;DHT22;9924;50.828;6.440;2022-12-18T14:22:15;-1.00;99.90
19555;DHT22;9924;50.828;6.440;2022-12-18T14:28:12;-1.00;99.90
19555;DHT22;9924;50.828;6.440;2022-12-18T14:30:57;-1.00;99.90
19555;DHT22;9924;50.828;6.440;2022-12-18T14:33:41;-1.10;99.90
19555;DHT22;9924;50.828;6.440;2022-12-18T14:36:29;-1.10;99.90
19555;DHT22;9924;50.828;6.440;2022-12-18T14:39:17;-1.10;99.90
19555;DHT22;9924;50.828;6.440;2022-12-18T14:42:01;-1.10;99.90
19555;DHT22;9924;50.828;6.440;2022-12-18T14:44:46;-1.10;99.90
19555;DHT22;9924;50.828;6.440;2022-12-18T14:47:30;-1.10;99.90
19555;DHT22;9924;50.828;6.440;2022-12-18T14:50:15;-1.10;99.90
19555;DHT22;9924;50.828;6.440;2022-12-18T14:52:59;-1.10;99.90
19555;DHT22;9924;50.828;6.440;2022-12-18T14:55:47;-1.10;99.90
19555;DHT22;9924;50.828;6.440;2022-12-18T14:58:32;-1.10;99.90
19555;DHT22;9924;50.828;6.440;2022-12-18T15:01:22;-1.20;99.90
19555;DHT22;9924;50.828;6.440;2022-12-18T15:04:27;-1.10;99.90
19555;DHT22;9924;50.828;6.440;2022-12-18T15:07:23;-1.20;99.90
19555;DHT22;9924;50.828;6.440;2022-12-18T15:10:17;-1.20;99.90
19555;DHT22;9924;50.828;6.440;2022-12-18T15:15:48;-1.30;99.90
19555;DHT22;9924;50.828;6.440;2022-12-18T15:18:35;-1.30;99.90
19555;DHT22;9924;50.828;6.440;2022-12-18T15:21:25;-1.30;99.90
19555;DHT22;9924;50.828;6.440;2022-12-18T15:24:18;-1.40;99.90
19555;DHT22;9924;50.828;6.440;2022-12-18T15:27:04;-1.40;99.90
19555;DHT22;9924;50.828;6.440;2022-12-18T15:33:33;-1.30;99.90
19555;DHT22;9924;50.828;6.440;2022-12-18T15:36:19;-1.30;99.90
19555;DHT22;9924;50.828;6.440;2022-12-18T15:39:04;-1.20;99.90
19555;DHT22;9924;50.828;6.440;2022-12-18T15:41:49;-1.20;99.90
19555;DHT22;9924;50.828;6.440;2022-12-18T15:44:53;-1.20;99.90
19555;DHT22;9924;50.828;6.440;2022-12-18T15:47:38;-1.20;99.90
19555;DHT22;9924;50.828;6.440;2022-12-18T15:50:23;-1.20;99.90
19555;DHT22;9924;50.828;6.440;2022-12-18T15:53:08;-1.20;99.90
19555;DHT22;9924;50.828;6.440;2022-12-18T15:55:53;-1.20;99.90
19555;DHT22;9924;50.828;6.440;2022-12-18T15:58:56;-1.20;99.90
19555;DHT22;9924;50.828;6.440;2022-12-18T16:01:42;-1.20;99.90
19555;DHT22;9924;50.828;6.440;2022-12-18T16:04:27;-1.20;99.90
19555;DHT22;9924;50.828;6.440;2022-12-18T16:07:12;-1.20;99.90
19555;DHT22;9924;50.828;6.440;2022-12-18T16:09:56;-1.30;99.90
19555;DHT22;9924;50.828;6.440;2022-12-18T16:12:42;-1.30;99.90
19555;DHT22;9924;50.828;6.440;2022-12-18T16:15:26;-1.30;99.90
19555;DHT22;9924;50.828;6.440;2022-12-18T16:18:10;-1.40;99.90
19555;DHT22;9924;50.828;6.440;2022-12-18T16:20:56;-1.40;99.90
19555;DHT22;9924;50.828;6.440;2022-12-18T16:23:42;-1.40;99.90
19555;DHT22;9924;50.828;6.440;2022-12-18T16:26:26;-1.40;99.90
19555;DHT22;9924;50.828;6.440;2022-12-18T16:29:11;-1.40;99.90
19555;DHT22;9924;50.828;6.440;2022-12-18T16:32:00;-1.30;99.90
19555;DHT22;9924;50.828;6.440;2022-12-18T16:34:46;-1.30;99.90
19555;DHT22;9924;50.828;6.440;2022-12-18T16:37:31;-1.30;99.90
19555;DHT22;9924;50.828;6.440;2022-12-18T16:40:16;-1.30;99.90
19555;DHT22;9924;50.828;6.440;2022-12-18T16:43:01;-1.30;99.90
19555;DHT22;9924;50.828;6.440;2022-12-18T16:45:45;-1.30;99.90
19555;DHT22;9924;50.828;6.440;2022-12-18T16:48:29;-1.30;99.90
19555;DHT22;9924;50.828;6.440;2022-12-18T16:51:14;-1.30;99.90
19555;DHT22;9924;50.828;6.440;2022-12-18T16:53:59;-1.30;99.90
19555;DHT22;9924;50.828;6.440;2022-12-18T16:56:43;-1.30;99.90
19555;DHT22;9924;50.828;6.440;2022-12-18T16:59:31;-1.30;99.90
19555;DHT22;9924;50.828;6.440;2022-12-18T17:02:21;-1.40;99.90
19555;DHT22;9924;50.828;6.440;2022-12-18T17:05:06;-1.40;99.90
19555;DHT22;9924;50.828;6.440;2022-12-18T17:07:53;-1.40;99.90
19555;DHT22;9924;50.828;6.440;2022-12-18T17:10:38;-1.50;99.90
19555;DHT22;9924;50.828;6.440;2022-12-18T17:13:25;-1.50;99.90
19555;DHT22;9924;50.828;6.440;2022-12-18T17:16:10;-1.50;99.90
19555;DHT22;9924;50.828;6.440;2022-12-18T17:18:54;-1.50;99.90
19555;DHT22;9924;50.828;6.440;2022-12-18T17:21:39;-1.50;99.90
19555;DHT22;9924;50.828;6.440;2022-12-18T17:24:24;-1.50;99.90
19555;DHT22;9924;50.828;6.440;2022-12-18T17:27:08;-1.50;99.90
19555;DHT22;9924;50.828;6.440;2022-12-18T17:29:55;-1.50;99.90
19555;DHT22;9924;50.828;6.440;2022-12-18T17:32:39;-1.50;99.90
19555;DHT22;9924;50.828;6.440;2022-12-18T17:35:24;-1.50;99.90
19555;DHT22;9924;50.828;6.440;2022-12-18T17:38:09;-1.50;99.90
19555;DHT22;9924;50.828;6.440;2022-12-18T17:40:53;-1.50;99.90
19555;DHT22;9924;50.828;6.440;2022-12-18T17:43:38;-1.40;99.90
19555;DHT22;9924;50.828;6.440;2022-12-18T17:46:30;-1.40;99.90
19555;DHT22;9924;50.828;6.440;2022-12-18T17:49:15;-1.40;99.90
19555;DHT22;9924;50.828;6.440;2022-12-18T17:52:00;-1.30;99.90
19555;DHT22;9924;50.828;6.440;2022-12-18T17:54:45;-1.30;99.90
19555;DHT22;9924;50.828;6.440;2022-12-18T17:57:31;-1.30;99.90
19555;DHT22;9924;50.828;6.440;2022-12-18T18:00:16;-1.30;99.90
19555;DHT22;9924;50.828;6.440;2022-12-18T18:03:01;-1.20;99.90
19555;DHT22;9924;50.828;6.440;2022-12-18T18:05:46;-1.20;99.90
19555;DHT22;9924;50.828;6.440;2022-12-18T18:08:32;-1.10;99.90
19555;DHT22;9924;50.828;6.440;2022-12-18T18:11:18;-1.10;99.90
19555;DHT22;9924;50.828;6.440;2022-12-18T18:14:22;-1.00;99.90
19555;DHT22;9924;50.828;6.440;2022-12-18T18:17:06;-1.00;99.90
19555;DHT22;9924;50.828;6.440;2022-12-18T18:19:51;-0.90;99.90
19555;DHT22;9924;50.828;6.440;2022-12-18T18:22:36;-0.90;99.90
19555;DHT22;9924;50.828;6.440;2022-12-18T18:25:21;-0.80;99.90
19555;DHT22;9924;50.828;6.440;2022-12-18T18:28:05;-0.80;99.90
19555;DHT22;9924;50.828;6.440;2022-12-18T18:30:50;-0.70;99.90
19555;DHT22;9924;50.828;6.440;2022-12-18T18:33:35;-0.60;99.90
19555;DHT22;9924;50.828;6.440;2022-12-18T18:36:21;-0.60;99.90
19555;DHT22;9924;50.828;6.440;2022-12-18T18:39:06;-0.60;99.90
19555;DHT22;9924;50.828;6.440;2022-12-18T18:41:50;-0.60;99.90
19555;DHT22;9924;50.828;6.440;2022-12-18T18:44:35;-0.60;99.90
19555;DHT22;9924;50.828;6.440;2022-12-18T18:47:20;-0.60;99.90
19555;DHT22;9924;50.828;6.440;2022-12-18T18:50:04;-0.60;99.90
19555;DHT22;9924;50.828;6.440;2022-12-18T18:52:50;-0.70;99.90
19555;DHT22;9924;50.828;6.440;2022-12-18T18:55:34;-0.70;99.90
19555;DHT22;9924;50.828;6.440;2022-12-18T18:58:19;-0.80;99.90
19555;DHT22;9924;50.828;6.440;2022-12-18T19:01:07;-0.70;99.90
19555;DHT22;9924;50.828;6.440;2022-12-18T19:04:01;-0.70;99.90
19555;DHT22;9924;50.828;6.440;2022-12-18T19:06:46;-0.70;99.90
19555;DHT22;9924;50.828;6.440;2022-12-18T19:09:31;-0.70;99.90
19555;DHT22;9924;50.828;6.440;2022-12-18T19:12:19;-0.80;99.90
19555;DHT22;9924;50.828;6.440;2022-12-18T19:15:23;-0.80;99.90
19555;DHT22;9924;50.828;6.440;2022-12-18T19:18:07;-0.80;99.90
19555;DHT22;9924;50.828;6.440;2022-12-18T19:20:58;-0.90;99.90
19555;DHT22;9924;50.828;6.440;2022-12-18T19:23:43;-0.90;99.90
19555;DHT22;9924;50.828;6.440;2022-12-18T19:26:28;-0.90;99.90
19555;DHT22;9924;50.828;6.440;2022-12-18T19:29:12;-0.90;99.90
19555;DHT22;9924;50.828;6.440;2022-12-18T19:31:59;-0.80;99.90
19555;DHT22;9924;50.828;6.440;2022-12-18T19:34:44;-0.90;99.90
19555;DHT22;9924;50.828;6.440;2022-12-18T19:37:28;-0.90;99.90
19555;DHT22;9924;50.828;6.440;2022-12-18T19:40:13;-0.90;99.90